Flight Track Log - Related Links

Times and Time Zones

All times are in EST time to prevent confusion due to time zone crossing. See the N45NS flight status page for this flight to view local times or setup timezone preferences in your user account.

Time Position Orientation Groundspeed Altitude Reporting Facility
EST Latitude Longitude Course Direction KTS MPH feet Rate Location/Type
Mon 10:17:58 AM 36.5308 -82.3672 25° Northeast 210 242 6,400  Level Atlanta Center
Mon 10:18:58 AM 36.6017 -82.3606 North 230 265 9,500 3,069 Climbing Atlanta Center
Mon 10:20:09 AM 36.6925 -82.3475 North 272 313 13,100 3,227 Climbing Indianapolis Center
Mon 10:21:10 AM 36.7803 -82.3350 North 290 334 16,600 3,268 Climbing Indianapolis Center
Mon 10:22:12 AM 36.8792 -82.3222 North 317 365 19,800 2,146 Climbing Indianapolis Center
Mon 10:23:13 AM 36.9778 -82.3083 North 343 395 21,000 590 Climbing Indianapolis Center
Mon 10:24:14 AM 37.0858 -82.2942 North 379 436 21,000 878 Level Indianapolis Center
Mon 10:25:16 AM 37.1944 -82.2783 North 390 449 22,800 1,805 Climbing Indianapolis Center
Mon 10:26:17 AM 37.3053 -82.2636 North 393 452 24,700 1,623 Climbing Indianapolis Center
Mon 10:27:18 AM 37.4281 -82.2472 North 432 497 26,100 1,854 Climbing Indianapolis Center
Mon 10:28:20 AM 37.5506 -82.2314 North 439 505 28,500 1,415 Climbing Indianapolis Center
Mon 10:29:21 AM 37.6764 -82.2128 North 451 519 29,000 246 Climbing Indianapolis Center
Mon 10:30:22 AM 37.8392 -82.1903 North 493 567 29,000  Level Indianapolis Center
Mon 10:31:24 AM 37.9789 -82.1703 North 501 577 29,000  Level Indianapolis Center
Mon 10:32:25 AM 38.0978 -82.1544 North 503 579 29,000  Level Indianapolis Center
Mon 10:33:26 AM 38.2653 -82.1317 North 502 578 29,000  Level Indianapolis Center
Mon 10:34:28 AM 38.4042 -82.1119 North 501 577 29,000  Level Indianapolis Center
Mon 10:35:29 AM 38.5417 -82.0944 North 497 572 29,000 246 Level Indianapolis Center
Mon 10:36:30 AM 38.6764 -82.0742 North 486 559 29,500 976 Climbing Indianapolis Center
Mon 10:37:32 AM 38.8058 -82.0567 North 469 540 31,000 732 Climbing Indianapolis Center
Mon 10:38:33 AM 38.9428 -82.0364 North 479 551 31,000  Level Indianapolis Center
Mon 10:39:34 AM 39.0808 -82.0169 North 492 566 31,000  Level Indianapolis Center
Mon 10:40:36 AM 39.2139 -81.9983 North 488 562 31,000 -683 Level Indianapolis Center
Mon 10:41:37 AM 39.3406 -81.9792 North 470 541 29,600 -1,869 Descending Indianapolis Center
Mon 10:42:38 AM 39.4606 -81.9617 North 442 509 27,200 -2,390 Descending Indianapolis Center
Mon 10:43:40 AM 39.5811 -81.9447 North 437 503 24,700 -2,439 Descending Indianapolis Center
Mon 10:44:41 AM 39.7028 -81.9281 North 437 503 22,200 -2,361 Descending Indianapolis Center
Mon 10:45:42 AM 39.8364 -81.9072 North 426 490 19,900 -2,098 Descending Indianapolis Center
Mon 10:46:44 AM 39.9478 -81.8919 North 412 474 17,900 -1,756 Descending Indianapolis Center
Mon 10:47:45 AM 40.0461 -81.8925 360° North 361 415 16,300 -1,770 Descending Indianapolis Center
Mon 10:48:46 AM 40.1456 -81.8928 360° North 358 412 14,300 -2,049 Descending Indianapolis Center
Mon 10:49:48 AM 40.2411 -81.8914 North 333 383 12,100 -2,098 Descending Indianapolis Center
Mon 10:50:49 AM 40.3289 -81.8908 360° North 318 366 10,000 -2,016 Descending Indianapolis Center
Mon 10:51:50 AM 40.4008 -81.8892 North 263 303 8,000 -2,000 Descending Indianapolis Center
Mon 10:52:52 AM 40.4719 -81.8897 360° North 253 291 5,900 -2,000 Descending Indianapolis Center
Mon 10:53:53 AM 40.5389 -81.8900 360° North 246 283 3,900 -1,426 Descending Indianapolis Center
Mon 10:54:54 AM 40.6064 -81.8917 359° North 241 277 3,000 -443 Descending Indianapolis Center
Mon 10:55:55 AM 40.6725 -81.8883 North 240 276 3,000  Level Indianapolis Center
Mon 10:56:57 AM 40.7478 -81.8894 359° North 240 276 3,000  Level Indianapolis Center

Login

Don't have an account? Register now (free) for customized features, flight alerts, and more!